Latest Weather Observations for Cape Grim

IDT60801

Issued at 6:02 am EDT Wednesday 25 January 2017 (issued every 30 minutes, with the page automatically refreshed every 10 minutes)

About weather observations | Map of weather stations | Latest weather observations for TAS | Other Formats
Station Details ID: 091331 Name: CAPE GRIM Lat: -40.68 Lon: 144.69 Height: 86.0 m
Data from the previous 72 hours. | See also: Recent months at Cape Grim
Date/Time
EDT
Temp
°C
App
Temp
°C
Dew
Point
°C
Rel
Hum
%
Delta-T
°C
Wind Press
QNH
hPa
Press
MSL
hPa
Rain since
9am
mm
Dir  Spd
km/h
Gust
km/h
Spd
kts
Gust
kts
25/05:30am 14.0 10.3 9.4 74 2.4 W 19 24 10 13 1019.2 1019.1 0.0
25/05:00am 14.1 10.4 9.5 74 2.4 W 19 26 10 14 1019.2 1019.1 0.0
25/04:30am 14.1 10.4 9.3 73 2.5 W 19 28 10 15 1019.2 1019.1 0.0
25/04:00am 14.4 10.8 10.0 75 2.3 W 19 28 10 15 1019.3 1019.2 0.0
25/03:30am 14.2 10.3 9.4 73 2.5 W 20 32 11 17 1019.5 1019.4 0.0
25/03:00am 14.2 10.2 9.2 72 2.6 W 20 30 11 16 1019.6 1019.5 0.0
25/02:30am 14.1 10.2 8.7 70 2.7 W 19 26 10 14 1019.7 1019.6 0.0
25/02:00am 14.3 10.4 8.7 69 2.8 W 19 39 10 21 1019.8 1019.7 0.0
25/01:30am 14.4 10.4 9.0 70 2.8 WSW 20 35 11 19 1019.8 1019.7 0.0
25/01:00am 14.5 10.7 9.1 70 2.8 WSW 19 32 10 17 1019.8 1019.7 0.0
25/12:30am 14.3 10.2 8.7 69 2.8 WSW 20 39 11 21 1019.7 1019.6 0.0
25/12:00am 14.5 9.3 8.7 68 2.9 SW 26 43 14 23 1019.5 1019.4 0.0
 
Date/Time
EDT
Temp
°C
App
Temp
°C
Dew
Point
°C
Rel
Hum
%
Delta-T
°C
Wind Press
QNH
hPa
Press
MSL
hPa
Rain since
9am
mm
Dir  Spd
km/h
Gust
km/h
Spd
kts
Gust
kts
24/11:30pm 14.5 9.4 9.1 70 2.8 WSW 26 46 14 25 1019.3 1019.2 0.0
24/11:00pm 14.6 9.4 9.0 69 2.9 WSW 26 43 14 23 1019.4 1019.3 0.0
24/10:30pm 14.6 9.9 9.2 70 2.8 W 24 43 13 23 1019.5 1019.4 0.0
24/10:00pm 14.5 9.2 8.5 67 3.0 WSW 26 41 14 22 1019.2 1019.1 0.0
24/09:30pm 14.6 8.7 9.2 70 2.8 WSW 30 54 16 29 1018.7 1018.5 0.0
24/09:06pm 14.5 8.7 8.0 65 3.3 WSW 28 48 15 26 1018.5 1018.3 0.0
24/09:00pm 14.5 9.4 7.8 64 3.3 WSW 24 43 13 23 1018.5 1018.3 0.0
24/08:30pm 14.6 10.3 9.2 70 2.8 WSW 22 43 12 23 1018.1 1017.9 0.0
24/08:03pm 14.7 9.1 8.6 67 3.1 WSW 28 48 15 26 1017.6 1017.5 0.0
24/08:00pm 14.7 8.6 8.2 65 3.3 WSW 30 50 16 27 1017.6 1017.5 0.0
24/07:46pm 14.9 8.8 8.2 64 3.4 WSW 30 50 16 27 1017.3 1017.2 0.0
24/07:30pm 14.9 9.9 8.2 64 3.4 WSW 24 46 13 25 1017.2 1017.1 0.0
24/07:00pm 15.1 9.0 8.1 63 3.5 SW 30 48 16 26 1016.9 1016.8 0.0
24/06:30pm 15.4 9.9 9.1 66 3.2 WSW 28 50 15 27 1016.5 1016.4 0.0
24/06:00pm 15.3 8.8 8.3 63 3.5 WSW 32 54 17 29 1016.2 1016.1 0.0
24/05:30pm 15.4 8.8 8.4 63 3.6 SW 33 52 18 28 1015.6 1015.5 0.0
24/05:01pm 15.7 8.3 8.4 62 3.7 SW 37 56 20 30 1015.4 1015.3 0.0
24/05:00pm 15.8 8.1 8.8 63 3.6 SW 39 56 21 30 1015.4 1015.3 0.0
24/04:47pm 15.7 8.6 8.0 60 3.9 SW 35 54 19 29 1015.2 1015.1 0.0
24/04:30pm 16.0 7.9 8.5 61 3.8 SW 41 54 22 29 1015.1 1015.0 0.0
24/04:00pm 15.9 6.9 8.9 63 3.6 SW 46 63 25 34 1014.8 1014.7 0.0
24/03:31pm 15.9 7.3 8.2 60 3.9 SW 43 61 23 33 1014.5 1014.4 0.0
24/03:30pm 15.7 6.9 8.2 61 3.8 SW 44 61 24 33 1014.6 1014.5 0.0
24/03:00pm 15.5 6.9 8.7 64 3.5 SW 44 65 24 35 1014.2 1014.1 0.0
24/02:45pm 15.7 6.3 8.9 64 3.5 SW 48 70 26 38 1013.9 1013.8 0.0
24/02:30pm 15.7 6.5 8.2 61 3.8 SW 46 59 25 32 1013.7 1013.6 0.0
24/02:00pm 15.5 7.0 7.0 57 4.2 SW 41 65 22 35 1013.2 1013.1 0.0
24/01:31pm 15.9 6.8 8.4 61 3.8 SW 46 65 25 35 1012.9 1012.8 0.0
24/01:30pm 16.0 6.6 8.7 62 3.7 SW 48 65 26 35 1012.9 1012.8 0.0
24/01:21pm 15.9 6.7 8.2 60 3.9 SW 46 65 25 35 1012.7 1012.6 0.0
24/01:00pm 15.8 5.4 7.6 58 4.1 SW 52 67 28 36 1012.4 1012.3 0.0
24/12:30pm 15.7 7.2 8.7 63 3.6 SW 43 63 23 34 1011.9 1011.8 0.0
24/12:13pm 15.4 6.9 9.1 66 3.2 SW 44 65 24 35 1011.7 1011.6 0.0
24/12:00pm 15.6 6.3 9.3 66 3.3 SW 48 63 26 34 1011.5 1011.4 0.0
24/11:30am 15.4 6.2 7.9 61 3.8 SW 46 65 25 35 1010.9 1010.8 0.0
24/11:02am 15.3 4.5 9.2 67 3.1 SW 56 74 30 40 1010.5 1010.4 0.0
24/11:00am 15.2 4.1 8.7 65 3.3 SW 57 74 31 40 1010.4 1010.3 0.0
24/10:33am 15.0 4.0 9.1 68 3.0 SW 57 76 31 41 1009.6 1009.5 0.0
24/10:30am 15.0 3.6 8.9 67 3.1 SW 59 76 32 41 1009.4 1009.3 0.0
24/10:00am 15.1 4.4 9.7 70 2.8 SW 56 74 30 40 1008.7 1008.5 0.0
24/09:30am 14.6 4.0 9.8 73 2.5 SW 56 74 30 40 1008.0 1007.8 0.0
24/09:00am 15.2 6.6 10.2 72 2.6 WSW 46 74 25 40 1007.3 1007.1 3.6
24/08:30am 15.1 6.1 10.1 72 2.6 WSW 48 83 26 45 1006.7 1006.5 3.6
24/08:00am 14.9 5.3 9.5 70 2.8 SW 50 83 27 45 1006.1 1005.9 3.6
24/07:30am 14.6 5.6 10.2 75 2.3 WSW 48 80 26 43 1005.3 1005.2 3.6
24/07:00am 14.8 5.9 10.6 76 2.2 SW 48 74 26 40 1004.5 1004.4 3.6
24/06:30am 14.4 5.0 10.0 75 2.3 SW 50 78 27 42 1003.5 1003.4 3.6
24/06:00am 14.8 4.4 10.8 77 2.1 SW 56 82 30 44 1002.6 1002.5 3.6
24/05:30am 15.3 5.3 11.9 80 1.8 WSW 56 80 30 43 1001.7 1001.6 3.6
24/05:00am 15.9 8.3 12.3 79 2.0 W 44 82 24 44 1001.2 1001.1 3.6
24/04:30am 16.4 9.1 14.6 89 1.0 W 46 67 25 36 1000.6 1000.5 3.6
24/04:00am 16.5 9.8 14.7 89 1.0 W 43 63 23 34 1000.5 1000.4 3.6
24/03:36am 16.6 9.9 14.6 88 1.2 W 43 61 23 33 1000.4 1000.3 3.6
24/03:30am 16.7 9.5 14.7 88 1.2 W 46 59 25 32 1000.3 1000.2 3.6
24/03:00am 16.1 8.8 14.5 90 0.9 W 46 65 25 35 999.6 999.5 3.6
24/02:59am 16.2 9.1 14.9 92 0.8 W 46 65 25 35 999.6 999.5 3.6
24/02:45am 16.6 9.1 16.0 96 0.4 W 50 69 27 37 999.4 999.2 3.4
24/02:30am 16.9 9.2 16.4 97 0.3 W 52 67 28 36 999.4 999.2 3.4
24/02:04am 17.2 10.3 16.6 96 0.4 WNW 48 57 26 31 999.3 999.1 3.4
24/02:00am 17.3 10.8 16.7 96 0.4 WNW 46 56 25 30 999.2 999.0 3.4
24/01:46am 17.4 11.0 16.8 96 0.4 WNW 46 59 25 32 999.2 999.0 3.4
24/01:30am 17.6 11.3 17.1 97 0.3 WNW 46 69 25 37 999.1 998.9 3.4
24/01:27am 17.7 12.0 17.2 97 0.3 WNW 43 57 23 31 999.1 998.9 3.4
24/01:00am 17.6 14.0 17.1 97 0.3 NW 32 39 17 21 999.1 998.9 3.4
24/12:30am 17.4 15.2 16.9 97 0.3 NW 24 32 13 17 999.4 999.2 3.2
24/12:00am 17.4 15.6 16.9 97 0.3 N 22 30 12 16 999.5 999.4 3.0
 
Date/Time
EDT
Temp
°C
App
Temp
°C
Dew
Point
°C
Rel
Hum
%
Delta-T
°C
Wind Press
QNH
hPa
Press
MSL
hPa
Rain since
9am
mm
Dir  Spd
km/h
Gust
km/h
Spd
kts
Gust
kts
23/11:30pm 17.2 15.9 16.7 97 0.3 N 19 24 10 13 1000.1 1000.0 3.0
23/11:00pm 17.0 16.0 16.5 97 0.3 N 17 19 9 10 1000.2 1000.1 3.0
23/10:30pm 16.8 16.1 16.3 97 0.3 N 15 20 8 11 1000.9 1000.8 3.0
23/10:18pm 16.8 16.0 16.2 96 0.4 N 15 17 8 9 1001.2 1001.1 3.0
23/10:10pm 16.7 15.9 16.1 96 0.4 N 15 19 8 10 1001.4 1001.3 3.0
23/10:00pm 16.8 16.0 16.2 96 0.4 N 15 19 8 10 1001.5 1001.4 3.0
23/09:37pm 16.9 15.8 16.3 96 0.4 NNW 17 20 9 11 1001.9 1001.8 2.8
23/09:30pm 16.9 15.8 16.3 96 0.4 NNW 17 20 9 11 1002.1 1002.0 2.8
23/09:00pm 17.0 15.3 16.2 95 0.5 NNW 20 24 11 13 1002.3 1002.2 2.6
23/08:30pm 17.4 15.9 16.8 96 0.4 NNW 20 28 11 15 1002.7 1002.6 1.6
23/08:00pm 17.6 15.4 16.8 95 0.5 N 24 33 13 18 1002.9 1002.8 0.8
23/07:30pm 17.7 15.8 16.7 94 0.6 NNE 22 28 12 15 1002.6 1002.5 0.0
23/07:00pm 17.9 15.2 16.6 92 0.8 NE 26 32 14 17 1002.0 1001.9 0.0
23/06:30pm 18.2 14.8 16.7 91 0.9 ENE 30 37 16 20 1001.2 1001.1 0.0
23/06:00pm 18.2 14.1 16.5 90 1.0 ENE 33 39 18 21 1001.1 1001.0 0.0
23/05:30pm 18.5 13.5 16.1 86 1.4 ENE 37 44 20 24 1001.2 1001.1 0.0
23/05:00pm 18.6 13.6 16.0 85 1.6 ENE 37 44 20 24 1001.6 1001.5 0.0
23/04:30pm 19.0 13.2 16.0 83 1.8 ENE 41 46 22 25 1001.9 1001.8 0.0
23/04:00pm 19.3 14.0 16.2 82 1.9 ENE 39 46 21 25 1002.1 1002.0 0.0
23/03:30pm 19.3 13.1 16.0 81 2.0 ENE 43 50 23 27 1002.5 1002.4 0.0
23/03:00pm 19.8 14.0 15.9 78 2.3 ENE 41 50 22 27 1002.9 1002.8 0.0
23/02:30pm 20.6 15.0 17.4 82 2.0 ENE 43 52 23 28 1003.3 1003.2 0.0
23/02:00pm 19.8 13.7 16.1 79 2.2 ENE 43 54 23 29 1003.9 1003.8 0.0
23/01:38pm 19.9 13.8 16.3 80 2.2 ENE 43 52 23 28 1004.2 1004.1 0.0
23/01:30pm 19.9 13.9 16.5 81 2.1 ENE 43 52 23 28 1004.3 1004.2 0.0
23/01:00pm 18.9 12.6 16.1 84 1.7 ENE 44 54 24 29 1004.3 1004.2 0.0
23/12:30pm 19.1 12.4 16.1 83 1.8 ENE 46 56 25 30 1004.8 1004.7 0.0
23/12:00pm 18.7 12.4 16.1 85 1.6 ENE 44 54 24 29 1005.1 1005.0 0.0
23/11:30am 19.0 12.1 16.6 86 1.4 ENE 48 57 26 31 1005.2 1005.1 0.0
23/11:00am 18.5 11.4 16.1 86 1.4 E 48 57 26 31 1005.5 1005.4 0.0
23/10:30am 18.3 11.8 15.7 85 1.5 E 44 54 24 29 1005.9 1005.7 0.0
23/10:00am 17.3 10.5 15.8 91 0.9 ENE 46 56 25 30 1006.3 1006.1 0.0
23/09:30am 17.5 11.3 16.4 93 0.7 E 44 56 24 30 1006.2 1006.0 0.0
23/09:00am 16.8 10.0 15.8 94 0.6 E 46 56 25 30 1006.3 1006.1 0.0
23/08:30am 16.7 10.3 15.9 95 0.5 ENE 44 54 24 29 1006.4 1006.2 0.0
23/08:00am 16.3 10.3 15.5 95 0.5 E 41 50 22 27 1006.5 1006.3 0.0
23/07:33am 16.0 10.0 15.4 96 0.3 E 41 48 22 26 1006.5 1006.3 0.0
23/07:30am 16.0 10.4 15.4 96 0.3 E 39 48 21 26 1006.5 1006.3 0.0
23/07:00am 15.9 11.0 15.3 96 0.3 E 35 46 19 25 1006.7 1006.5 0.0
23/06:30am 15.8 10.9 15.2 96 0.3 E 35 41 19 22 1007.1 1006.9 0.0
23/06:23am 15.8 10.5 15.2 96 0.3 E 37 43 20 23 1007.2 1007.0 0.0
23/06:00am 15.8 10.5 15.3 97 0.3 E 37 43 20 23 1007.4 1007.2 0.0
23/05:30am 15.9 11.0 15.4 97 0.3 E 35 43 19 23 1007.7 1007.5 0.0
23/05:00am 15.8 11.3 15.3 97 0.3 E 33 41 18 22 1007.6 1007.4 0.0
23/04:30am 16.0 11.7 15.5 97 0.3 E 32 37 17 20 1007.7 1007.5 0.0
23/04:24am 16.0 11.7 15.5 97 0.3 E 32 35 17 19 1007.6 1007.4 0.0
23/04:00am 15.9 11.9 15.1 95 0.5 E 30 35 16 19 1008.0 1007.8 0.0
23/03:30am 15.9 12.3 15.3 96 0.3 ENE 28 33 15 18 1008.4 1008.2 0.0
23/03:00am 15.7 12.8 15.1 96 0.3 ENE 24 28 13 15 1008.9 1008.7 0.0
23/02:30am 15.6 13.0 15.0 96 0.3 ENE 22 26 12 14 1009.5 1009.4 0.0
23/02:00am 15.1 12.9 14.5 96 0.3 ENE 19 22 10 12 1010.1 1010.0 0.0
23/01:30am 14.6 12.6 14.0 96 0.3 NE 17 19 9 10 1010.5 1010.4 0.0
23/01:00am 14.6 12.6 13.8 95 0.5 NE 17 20 9 11 1010.7 1010.6 0.0
23/12:30am 14.2 12.7 13.2 94 0.6 NE 13 15 7 8 1011.1 1011.0 0.0
23/12:00am 14.2 12.0 13.2 94 0.6 NE 17 20 9 11 1011.0 1010.9 0.0
 
Date/Time
EDT
Temp
°C
App
Temp
°C
Dew
Point
°C
Rel
Hum
%
Delta-T
°C
Wind Press
QNH
hPa
Press
MSL
hPa
Rain since
9am
mm
Dir  Spd
km/h
Gust
km/h
Spd
kts
Gust
kts
22/11:30pm 14.3 12.1 13.3 94 0.6 NE 17 19 9 10 1011.2 1011.1 0.0
22/11:00pm 14.4 12.1 13.0 91 0.8 NE 17 17 9 9 1011.6 1011.5 0.0
22/10:30pm 15.0 13.3 12.5 85 1.4 NNE 13 15 7 8 1012.0 1011.9 0.0
22/10:00pm 15.9 14.2 11.3 74 2.5 SW 11 13 6 7 1012.3 1012.2 0.0
22/09:30pm 16.5 16.8 11.0 70 3.0 CALM 0 0 0 0 1012.4 1012.3 0.0
22/09:00pm 16.4 17.4 13.1 81 1.8 CALM 0 0 0 0 1012.4 1012.3 0.0
22/08:30pm 16.9 16.7 13.0 78 2.2 SW 6 7 3 4 1012.6 1012.5 0.0
22/08:00pm 17.0 15.9 13.1 78 2.2 SW 11 13 6 7 1012.7 1012.6 0.0
22/07:30pm 17.1 15.7 13.4 79 2.1 SW 13 17 7 9 1012.7 1012.6 0.0
22/07:00pm 17.4 16.0 13.3 77 2.3 SW 13 17 7 9 1012.7 1012.6 0.0
22/06:30pm 17.5 15.7 13.4 77 2.3 SW 15 19 8 10 1012.9 1012.8 0.0
22/06:00pm 17.4 14.7 12.9 75 2.5 SW 19 20 10 11 1013.1 1013.0 0.0
22/05:30pm 17.7 15.0 13.0 74 2.6 SW 19 22 10 12 1013.4 1013.3 0.0
22/05:00pm 18.1 15.5 13.2 73 2.8 SW 19 22 10 12 1013.6 1013.5 0.0
22/04:30pm 17.9 15.2 12.8 72 2.9 SW 19 24 10 13 1014.0 1013.9 0.0
22/04:00pm 17.9 15.2 13.0 73 2.8 SW 19 24 10 13 1014.3 1014.2 0.0
22/03:30pm 18.1 15.5 13.2 73 2.8 SW 19 22 10 12 1014.4 1014.3 0.0
22/03:00pm 18.3 16.5 13.4 73 2.8 SW 15 20 8 11 1014.7 1014.6 0.0
22/02:30pm 18.5 17.6 13.8 74 2.7 WSW 11 17 6 9 1014.9 1014.8 0.0
22/02:00pm 17.6 16.3 12.5 72 2.8 WSW 11 17 6 9 1015.2 1015.1 0.0
22/01:30pm 18.4 17.6 14.1 76 2.5 W 11 15 6 8 1015.6 1015.5 0.0
22/01:00pm 18.1 17.2 13.6 75 2.6 W 11 15 6 8 1015.7 1015.6 0.0
22/12:30pm 17.5 16.4 13.0 75 2.5 W 11 15 6 8 1015.9 1015.8 0.0
22/12:00pm 17.5 16.8 13.2 76 2.4 W 9 13 5 7 1016.0 1015.9 0.0
22/11:30am 17.5 16.8 13.2 76 2.4 W 9 13 5 7 1016.0 1015.9 0.0
22/11:00am 17.7 17.2 13.8 78 2.2 W 9 11 5 6 1016.0 1015.9 0.0
22/10:30am 16.8 15.6 12.7 77 2.3 NW 11 15 6 8 1016.0 1015.9 0.0
22/10:00am 16.9 15.7 12.8 77 2.3 NW 11 15 6 8 1016.1 1016.0 0.0
22/09:30am 16.7 15.8 12.5 76 2.3 NW 9 15 5 8 1016.4 1016.3 0.0
22/09:00am 16.2 14.7 12.0 76 2.3 NW 11 15 6 8 1016.7 1016.6 0.0
22/08:30am 15.8 14.8 12.2 79 2.0 NNW 9 13 5 7 1016.3 1016.2 0.0
22/08:00am 15.0 13.5 11.8 81 1.7 NW 11 15 6 8 1016.3 1016.2 0.0
22/07:30am 14.4 13.8 12.4 88 1.1 WNW 7 11 4 6 1016.2 1016.1 0.0
22/07:00am 13.4 12.6 10.9 85 1.3 WSW 6 6 3 3 1015.8 1015.7 0.0
22/06:30am 12.9 12.1 11.0 88 1.0 WSW 6 7 3 4 1015.4 1015.3 0.0

Other Formats:

Comma delimited format used in spreadsheet applications
http://www.bom.gov.au/fwo/IDT60801/IDT60801.95954.axf

JavaScript Object Notation format (JSON) in row-major order
http://www.bom.gov.au/fwo/IDT60801/IDT60801.95954.json